Terminal Aerodrome Forecast
Issued by NWS Goodland, KS

Home | Current Version | Previous Version | Text Only | Print | Product List | Glossary On
Versions: 1 2 3 4 5 6 7 8 9 10 11 12 13 14 15 16 17 18 19 20 21 22 23
000
FTUS43 KGLD 272347
TAFGLD
TAF
KGLD 272347Z 2800/2824 17006KT P6SM FEW040 BKN120 OVC200
     FM280300 28011KT P6SM SCT040 OVC090
     FM280700 19008KT P6SM BKN200
      TEMPO 2810/2814 5SM BR
     FM282100 16012KT P6SM VCTS SCT070CB BKN150=

USA.gov is the U.S. government's official web portal to all federal, state and local government web resources and services.